Milroy, Minnesota
Current Conditions -  °F | °C
As of 1:32 PM on Thursday 30 Oct 2014 (Local Time) from KTKC Reporting Station
Clear Clear  
Wind Chill: 51°   Ceiling: Unl
Heat Index: 51°   Visibility: 10mi
Dew Point: 41°   Wind: 14mph
Humidity: 67%   Direction: 340°NNW
Pressure: 30.12"   Gusts: 20mph
Location:  44.42°N, 95.55°W
Report Text: KTKC 301832Z AUTO 34012G17KT 10SM CLR 11/05 A3012 RMK AO2 T01070049
Loading
Personal Weather Stations






























Interactive Weather Map
Tropical Storm Tracking
New forecast layout! Learn more

10-Day Weather Forecast

Advertisements
Track Severe Weather on mobile